KEST/EST METAR and TAF weather

Enter ICAO airport designator
Station Type Date Time Source
KEST METAR 2019/02/21 15:52 UTC NOAA

KEST 211552Z AUTO 24014KT 8SM CLR M13/M16 A3014 RMK AO2 SLP233 T11281156


Station Type Date Time Source
KEST Decoded METAR 2019/02/21 15:52 UTC NOAA

ESTHERVILLE MUNICIPAL AIRPORT , IA, United States (KEST) 43-24N 94-45W 401M
Feb 21, 2019 - 10:52 AM EST / 2019.02.21 1552 UTC
Wind: from the WSW (240 degrees) at 16 MPH (14 KT):0
Visibility: 8 mile(s):0
Sky conditions: clear
Temperature: 9.0 F (-12.8 C)
Windchill: -7 F (-22 C):2
Dew Point: 3.9 F (-15.6 C)
Relative Humidity: 79%
Pressure (altimeter): 30.14 in. Hg (1020 hPa)
ob: KEST 211552Z AUTO 24014KT 8SM CLR M13/M16 A3014 RMK AO2 SLP233 T11281156
cycle: 16

Station Type Date Time Source
KEST TAF UTC NOAA

Error!


Example: see airport list